sensor_id;sensor_type;location;lat;lon;timestamp;P1;durP1;ratioP1;P2;durP2;ratioP2
26038;SDS011;13815;52.374;4.882;2023-10-31T00:01:53;0.00;;;0.00;;
26038;SDS011;13815;52.374;4.882;2023-10-31T00:04:20;0.00;;;0.00;;
26038;SDS011;13815;52.374;4.882;2023-10-31T00:06:45;0.00;;;0.00;;
26038;SDS011;13815;52.374;4.882;2023-10-31T00:09:11;0.00;;;0.00;;
26038;SDS011;13815;52.374;4.882;2023-10-31T00:11:36;0.00;;;0.00;;
26038;SDS011;13815;52.374;4.882;2023-10-31T00:14:02;0.00;;;0.00;;
26038;SDS011;13815;52.374;4.882;2023-10-31T00:16:27;0.00;;;0.00;;
26038;SDS011;13815;52.374;4.882;2023-10-31T00:18:53;0.00;;;0.00;;
26038;SDS011;13815;52.374;4.882;2023-10-31T00:21:18;0.00;;;0.00;;
26038;SDS011;13815;52.374;4.882;2023-10-31T00:23:44;0.00;;;0.00;;
26038;SDS011;13815;52.374;4.882;2023-10-31T00:26:12;0.00;;;0.00;;
26038;SDS011;13815;52.374;4.882;2023-10-31T00:28:38;0.00;;;0.00;;
26038;SDS011;13815;52.374;4.882;2023-10-31T00:31:03;0.00;;;0.00;;
26038;SDS011;13815;52.374;4.882;2023-10-31T00:33:30;0.00;;;0.00;;
26038;SDS011;13815;52.374;4.882;2023-10-31T00:35:55;0.00;;;0.00;;
26038;SDS011;13815;52.374;4.882;2023-10-31T00:38:20;0.00;;;0.00;;
26038;SDS011;13815;52.374;4.882;2023-10-31T00:40:46;0.00;;;0.00;;
26038;SDS011;13815;52.374;4.882;2023-10-31T00:43:11;0.00;;;0.00;;
26038;SDS011;13815;52.374;4.882;2023-10-31T00:45:37;0.00;;;0.00;;
26038;SDS011;13815;52.374;4.882;2023-10-31T00:48:02;0.00;;;0.00;;
26038;SDS011;13815;52.374;4.882;2023-10-31T00:50:28;0.00;;;0.00;;
26038;SDS011;13815;52.374;4.882;2023-10-31T00:52:54;0.00;;;0.00;;
26038;SDS011;13815;52.374;4.882;2023-10-31T00:55:19;0.00;;;0.00;;
26038;SDS011;13815;52.374;4.882;2023-10-31T00:57:45;0.00;;;0.00;;
26038;SDS011;13815;52.374;4.882;2023-10-31T01:00:10;0.00;;;0.00;;
26038;SDS011;13815;52.374;4.882;2023-10-31T01:02:36;0.00;;;0.00;;
26038;SDS011;13815;52.374;4.882;2023-10-31T01:05:01;0.00;;;0.00;;
26038;SDS011;13815;52.374;4.882;2023-10-31T01:07:26;0.00;;;0.00;;
26038;SDS011;13815;52.374;4.882;2023-10-31T01:09:52;0.00;;;0.00;;
26038;SDS011;13815;52.374;4.882;2023-10-31T01:12:17;0.00;;;0.00;;
26038;SDS011;13815;52.374;4.882;2023-10-31T01:14:42;0.00;;;0.00;;
26038;SDS011;13815;52.374;4.882;2023-10-31T01:17:08;0.00;;;0.00;;
26038;SDS011;13815;52.374;4.882;2023-10-31T01:19:33;0.00;;;0.00;;
26038;SDS011;13815;52.374;4.882;2023-10-31T01:21:59;0.00;;;0.00;;
26038;SDS011;13815;52.374;4.882;2023-10-31T01:24:24;0.00;;;0.00;;
26038;SDS011;13815;52.374;4.882;2023-10-31T01:26:49;0.00;;;0.00;;
26038;SDS011;13815;52.374;4.882;2023-10-31T01:29:15;0.00;;;0.00;;
26038;SDS011;13815;52.374;4.882;2023-10-31T01:31:40;0.00;;;0.00;;
26038;SDS011;13815;52.374;4.882;2023-10-31T01:34:06;0.00;;;0.00;;
26038;SDS011;13815;52.374;4.882;2023-10-31T01:36:31;0.00;;;0.00;;
26038;SDS011;13815;52.374;4.882;2023-10-31T01:38:57;0.00;;;0.00;;
26038;SDS011;13815;52.374;4.882;2023-10-31T01:41:24;0.00;;;0.00;;
26038;SDS011;13815;52.374;4.882;2023-10-31T01:43:50;0.00;;;0.00;;
26038;SDS011;13815;52.374;4.882;2023-10-31T01:46:15;0.00;;;0.00;;
26038;SDS011;13815;52.374;4.882;2023-10-31T01:48:41;0.00;;;0.00;;
26038;SDS011;13815;52.374;4.882;2023-10-31T01:51:06;0.00;;;0.00;;
26038;SDS011;13815;52.374;4.882;2023-10-31T01:53:32;0.00;;;0.00;;
26038;SDS011;13815;52.374;4.882;2023-10-31T01:55:59;0.00;;;0.00;;
26038;SDS011;13815;52.374;4.882;2023-10-31T01:58:28;0.00;;;0.00;;
26038;SDS011;13815;52.374;4.882;2023-10-31T02:00:55;0.00;;;0.00;;
26038;SDS011;13815;52.374;4.882;2023-10-31T02:03:21;0.00;;;0.00;;
26038;SDS011;13815;52.374;4.882;2023-10-31T02:05:46;0.00;;;0.00;;
26038;SDS011;13815;52.374;4.882;2023-10-31T02:08:12;0.00;;;0.00;;
26038;SDS011;13815;52.374;4.882;2023-10-31T02:10:37;0.00;;;0.00;;
26038;SDS011;13815;52.374;4.882;2023-10-31T02:13:13;0.00;;;0.00;;
26038;SDS011;13815;52.374;4.882;2023-10-31T02:15:39;0.00;;;0.00;;
26038;SDS011;13815;52.374;4.882;2023-10-31T02:18:05;0.00;;;0.00;;
26038;SDS011;13815;52.374;4.882;2023-10-31T02:20:30;0.00;;;0.00;;
26038;SDS011;13815;52.374;4.882;2023-10-31T02:22:56;0.00;;;0.00;;
26038;SDS011;13815;52.374;4.882;2023-10-31T02:25:21;0.00;;;0.00;;
26038;SDS011;13815;52.374;4.882;2023-10-31T02:27:46;0.00;;;0.00;;
26038;SDS011;13815;52.374;4.882;2023-10-31T02:30:12;0.00;;;0.00;;
26038;SDS011;13815;52.374;4.882;2023-10-31T02:32:37;0.00;;;0.00;;
26038;SDS011;13815;52.374;4.882;2023-10-31T02:35:03;0.00;;;0.00;;
26038;SDS011;13815;52.374;4.882;2023-10-31T02:37:28;0.00;;;0.00;;
26038;SDS011;13815;52.374;4.882;2023-10-31T02:39:53;0.00;;;0.00;;
26038;SDS011;13815;52.374;4.882;2023-10-31T02:42:19;0.00;;;0.00;;
26038;SDS011;13815;52.374;4.882;2023-10-31T02:44:44;0.00;;;0.00;;
26038;SDS011;13815;52.374;4.882;2023-10-31T02:47:10;0.00;;;0.00;;
26038;SDS011;13815;52.374;4.882;2023-10-31T02:49:35;0.00;;;0.00;;
26038;SDS011;13815;52.374;4.882;2023-10-31T02:52:00;0.00;;;0.00;;
26038;SDS011;13815;52.374;4.882;2023-10-31T02:54:25;0.00;;;0.00;;
26038;SDS011;13815;52.374;4.882;2023-10-31T02:56:51;0.00;;;0.00;;
26038;SDS011;13815;52.374;4.882;2023-10-31T02:59:16;0.00;;;0.00;;
26038;SDS011;13815;52.374;4.882;2023-10-31T03:01:42;0.00;;;0.00;;
26038;SDS011;13815;52.374;4.882;2023-10-31T03:04:07;0.00;;;0.00;;
26038;SDS011;13815;52.374;4.882;2023-10-31T03:06:32;0.00;;;0.00;;
26038;SDS011;13815;52.374;4.882;2023-10-31T03:08:57;0.00;;;0.00;;
26038;SDS011;13815;52.374;4.882;2023-10-31T03:11:23;0.00;;;0.00;;
26038;SDS011;13815;52.374;4.882;2023-10-31T03:13:49;0.00;;;0.00;;
26038;SDS011;13815;52.374;4.882;2023-10-31T03:16:15;0.00;;;0.00;;
26038;SDS011;13815;52.374;4.882;2023-10-31T03:18:41;0.00;;;0.00;;
26038;SDS011;13815;52.374;4.882;2023-10-31T03:21:06;0.00;;;0.00;;
26038;SDS011;13815;52.374;4.882;2023-10-31T03:23:32;0.00;;;0.00;;
26038;SDS011;13815;52.374;4.882;2023-10-31T03:25:57;0.00;;;0.00;;
26038;SDS011;13815;52.374;4.882;2023-10-31T03:28:22;0.00;;;0.00;;
26038;SDS011;13815;52.374;4.882;2023-10-31T03:30:49;0.00;;;0.00;;
26038;SDS011;13815;52.374;4.882;2023-10-31T03:33:15;0.00;;;0.00;;
26038;SDS011;13815;52.374;4.882;2023-10-31T03:35:41;0.00;;;0.00;;
26038;SDS011;13815;52.374;4.882;2023-10-31T03:38:06;0.00;;;0.00;;
26038;SDS011;13815;52.374;4.882;2023-10-31T03:40:32;0.00;;;0.00;;
26038;SDS011;13815;52.374;4.882;2023-10-31T03:42:57;0.00;;;0.00;;
26038;SDS011;13815;52.374;4.882;2023-10-31T03:45:22;0.00;;;0.00;;
26038;SDS011;13815;52.374;4.882;2023-10-31T03:47:48;0.00;;;0.00;;
26038;SDS011;13815;52.374;4.882;2023-10-31T03:50:13;0.00;;;0.00;;
26038;SDS011;13815;52.374;4.882;2023-10-31T03:52:38;0.00;;;0.00;;
26038;SDS011;13815;52.374;4.882;2023-10-31T03:55:04;0.00;;;0.00;;
26038;SDS011;13815;52.374;4.882;2023-10-31T03:57:30;0.00;;;0.00;;
26038;SDS011;13815;52.374;4.882;2023-10-31T03:59:55;0.00;;;0.00;;
26038;SDS011;13815;52.374;4.882;2023-10-31T04:02:20;0.00;;;0.00;;
26038;SDS011;13815;52.374;4.882;2023-10-31T04:04:45;0.00;;;0.00;;
26038;SDS011;13815;52.374;4.882;2023-10-31T04:07:11;0.00;;;0.00;;
26038;SDS011;13815;52.374;4.882;2023-10-31T04:09:36;0.00;;;0.00;;
26038;SDS011;13815;52.374;4.882;2023-10-31T04:12:01;0.00;;;0.00;;
26038;SDS011;13815;52.374;4.882;2023-10-31T04:14:27;0.00;;;0.00;;
26038;SDS011;13815;52.374;4.882;2023-10-31T04:16:52;0.00;;;0.00;;
26038;SDS011;13815;52.374;4.882;2023-10-31T04:19:17;0.00;;;0.00;;
26038;SDS011;13815;52.374;4.882;2023-10-31T04:21:43;0.00;;;0.00;;
26038;SDS011;13815;52.374;4.882;2023-10-31T04:24:08;0.00;;;0.00;;
26038;SDS011;13815;52.374;4.882;2023-10-31T04:26:33;0.00;;;0.00;;
26038;SDS011;13815;52.374;4.882;2023-10-31T04:28:59;0.00;;;0.00;;
26038;SDS011;13815;52.374;4.882;2023-10-31T04:31:24;0.00;;;0.00;;
26038;SDS011;13815;52.374;4.882;2023-10-31T04:33:49;0.00;;;0.00;;
26038;SDS011;13815;52.374;4.882;2023-10-31T04:36:15;0.00;;;0.00;;
26038;SDS011;13815;52.374;4.882;2023-10-31T04:38:40;0.00;;;0.00;;
26038;SDS011;13815;52.374;4.882;2023-10-31T04:41:05;0.00;;;0.00;;
26038;SDS011;13815;52.374;4.882;2023-10-31T04:43:33;0.00;;;0.00;;
26038;SDS011;13815;52.374;4.882;2023-10-31T04:45:58;0.00;;;0.00;;
26038;SDS011;13815;52.374;4.882;2023-10-31T04:48:23;0.00;;;0.00;;
26038;SDS011;13815;52.374;4.882;2023-10-31T04:50:49;0.00;;;0.00;;
26038;SDS011;13815;52.374;4.882;2023-10-31T04:53:14;0.00;;;0.00;;
26038;SDS011;13815;52.374;4.882;2023-10-31T04:55:39;0.00;;;0.00;;
26038;SDS011;13815;52.374;4.882;2023-10-31T04:58:04;0.00;;;0.00;;
26038;SDS011;13815;52.374;4.882;2023-10-31T05:00:30;0.00;;;0.00;;
26038;SDS011;13815;52.374;4.882;2023-10-31T05:02:55;0.00;;;0.00;;
26038;SDS011;13815;52.374;4.882;2023-10-31T05:05:23;0.00;;;0.00;;
26038;SDS011;13815;52.374;4.882;2023-10-31T05:07:48;0.00;;;0.00;;
26038;SDS011;13815;52.374;4.882;2023-10-31T05:10:13;0.00;;;0.00;;
26038;SDS011;13815;52.374;4.882;2023-10-31T05:12:39;0.00;;;0.00;;
26038;SDS011;13815;52.374;4.882;2023-10-31T05:15:04;0.00;;;0.00;;
26038;SDS011;13815;52.374;4.882;2023-10-31T05:17:30;0.00;;;0.00;;
26038;SDS011;13815;52.374;4.882;2023-10-31T05:19:55;0.00;;;0.00;;
26038;SDS011;13815;52.374;4.882;2023-10-31T05:22:21;0.00;;;0.00;;
26038;SDS011;13815;52.374;4.882;2023-10-31T05:24:46;0.00;;;0.00;;
26038;SDS011;13815;52.374;4.882;2023-10-31T05:27:11;0.00;;;0.00;;
26038;SDS011;13815;52.374;4.882;2023-10-31T05:29:38;0.00;;;0.00;;
26038;SDS011;13815;52.374;4.882;2023-10-31T05:32:04;0.00;;;0.00;;
26038;SDS011;13815;52.374;4.882;2023-10-31T05:34:30;0.00;;;0.00;;
26038;SDS011;13815;52.374;4.882;2023-10-31T05:36:55;0.00;;;0.00;;
26038;SDS011;13815;52.374;4.882;2023-10-31T05:39:20;0.00;;;0.00;;
26038;SDS011;13815;52.374;4.882;2023-10-31T05:41:46;0.00;;;0.00;;
26038;SDS011;13815;52.374;4.882;2023-10-31T05:44:11;0.00;;;0.00;;
26038;SDS011;13815;52.374;4.882;2023-10-31T05:46:40;0.00;;;0.00;;
26038;SDS011;13815;52.374;4.882;2023-10-31T05:49:08;0.00;;;0.00;;
26038;SDS011;13815;52.374;4.882;2023-10-31T05:51:35;0.00;;;0.00;;
26038;SDS011;13815;52.374;4.882;2023-10-31T05:54:01;0.00;;;0.00;;
26038;SDS011;13815;52.374;4.882;2023-10-31T05:56:26;0.00;;;0.00;;
26038;SDS011;13815;52.374;4.882;2023-10-31T05:58:52;0.00;;;0.00;;
26038;SDS011;13815;52.374;4.882;2023-10-31T06:01:17;0.00;;;0.00;;
26038;SDS011;13815;52.374;4.882;2023-10-31T06:03:42;0.00;;;0.00;;
26038;SDS011;13815;52.374;4.882;2023-10-31T06:06:09;0.00;;;0.00;;
26038;SDS011;13815;52.374;4.882;2023-10-31T06:08:34;0.00;;;0.00;;
26038;SDS011;13815;52.374;4.882;2023-10-31T06:11:00;0.00;;;0.00;;
26038;SDS011;13815;52.374;4.882;2023-10-31T06:13:26;0.00;;;0.00;;
26038;SDS011;13815;52.374;4.882;2023-10-31T06:15:52;0.00;;;0.00;;
26038;SDS011;13815;52.374;4.882;2023-10-31T06:18:26;0.00;;;0.00;;
26038;SDS011;13815;52.374;4.882;2023-10-31T06:20:52;0.00;;;0.00;;
26038;SDS011;13815;52.374;4.882;2023-10-31T06:23:18;0.00;;;0.00;;
26038;SDS011;13815;52.374;4.882;2023-10-31T06:25:43;0.00;;;0.00;;
26038;SDS011;13815;52.374;4.882;2023-10-31T06:28:08;0.00;;;0.00;;
26038;SDS011;13815;52.374;4.882;2023-10-31T06:30:34;0.00;;;0.00;;
26038;SDS011;13815;52.374;4.882;2023-10-31T06:32:59;0.00;;;0.00;;
26038;SDS011;13815;52.374;4.882;2023-10-31T06:35:27;0.00;;;0.00;;
26038;SDS011;13815;52.374;4.882;2023-10-31T06:37:54;0.00;;;0.00;;
26038;SDS011;13815;52.374;4.882;2023-10-31T06:40:21;0.00;;;0.00;;
26038;SDS011;13815;52.374;4.882;2023-10-31T06:42:46;0.00;;;0.00;;
26038;SDS011;13815;52.374;4.882;2023-10-31T06:45:11;0.00;;;0.00;;
26038;SDS011;13815;52.374;4.882;2023-10-31T06:47:37;0.00;;;0.00;;
26038;SDS011;13815;52.374;4.882;2023-10-31T06:50:02;0.00;;;0.00;;
26038;SDS011;13815;52.374;4.882;2023-10-31T06:52:27;0.00;;;0.00;;
26038;SDS011;13815;52.374;4.882;2023-10-31T06:54:53;0.00;;;0.00;;
26038;SDS011;13815;52.374;4.882;2023-10-31T06:57:18;0.00;;;0.00;;
26038;SDS011;13815;52.374;4.882;2023-10-31T06:59:44;0.00;;;0.00;;
26038;SDS011;13815;52.374;4.882;2023-10-31T07:02:09;0.00;;;0.00;;
26038;SDS011;13815;52.374;4.882;2023-10-31T07:04:34;0.00;;;0.00;;
26038;SDS011;13815;52.374;4.882;2023-10-31T07:07:00;0.00;;;0.00;;
26038;SDS011;13815;52.374;4.882;2023-10-31T07:09:25;0.00;;;0.00;;
26038;SDS011;13815;52.374;4.882;2023-10-31T07:11:51;0.00;;;0.00;;
26038;SDS011;13815;52.374;4.882;2023-10-31T07:14:16;0.00;;;0.00;;
26038;SDS011;13815;52.374;4.882;2023-10-31T07:16:42;0.00;;;0.00;;
26038;SDS011;13815;52.374;4.882;2023-10-31T07:19:09;0.00;;;0.00;;
26038;SDS011;13815;52.374;4.882;2023-10-31T07:21:35;0.00;;;0.00;;
26038;SDS011;13815;52.374;4.882;2023-10-31T07:24:02;0.00;;;0.00;;
26038;SDS011;13815;52.374;4.882;2023-10-31T07:26:28;0.00;;;0.00;;
26038;SDS011;13815;52.374;4.882;2023-10-31T07:28:53;0.00;;;0.00;;
26038;SDS011;13815;52.374;4.882;2023-10-31T07:31:19;0.00;;;0.00;;
26038;SDS011;13815;52.374;4.882;2023-10-31T07:33:45;0.00;;;0.00;;
26038;SDS011;13815;52.374;4.882;2023-10-31T07:36:10;0.00;;;0.00;;
26038;SDS011;13815;52.374;4.882;2023-10-31T07:38:36;0.00;;;0.00;;
26038;SDS011;13815;52.374;4.882;2023-10-31T07:41:01;0.00;;;0.00;;
26038;SDS011;13815;52.374;4.882;2023-10-31T07:43:26;0.00;;;0.00;;
26038;SDS011;13815;52.374;4.882;2023-10-31T07:45:52;0.00;;;0.00;;
26038;SDS011;13815;52.374;4.882;2023-10-31T07:48:20;0.00;;;0.00;;
26038;SDS011;13815;52.374;4.882;2023-10-31T07:50:49;0.00;;;0.00;;
26038;SDS011;13815;52.374;4.882;2023-10-31T07:53:14;0.00;;;0.00;;
26038;SDS011;13815;52.374;4.882;2023-10-31T07:55:39;0.00;;;0.00;;
26038;SDS011;13815;52.374;4.882;2023-10-31T07:58:05;0.00;;;0.00;;
26038;SDS011;13815;52.374;4.882;2023-10-31T08:00:30;0.00;;;0.00;;
26038;SDS011;13815;52.374;4.882;2023-10-31T08:02:56;0.00;;;0.00;;
26038;SDS011;13815;52.374;4.882;2023-10-31T08:05:21;0.00;;;0.00;;
26038;SDS011;13815;52.374;4.882;2023-10-31T08:07:47;0.00;;;0.00;;
26038;SDS011;13815;52.374;4.882;2023-10-31T08:10:12;0.00;;;0.00;;
26038;SDS011;13815;52.374;4.882;2023-10-31T08:12:41;0.00;;;0.00;;
26038;SDS011;13815;52.374;4.882;2023-10-31T08:15:07;0.00;;;0.00;;
26038;SDS011;13815;52.374;4.882;2023-10-31T08:17:32;0.00;;;0.00;;
26038;SDS011;13815;52.374;4.882;2023-10-31T08:19:58;0.00;;;0.00;;
26038;SDS011;13815;52.374;4.882;2023-10-31T08:22:23;0.00;;;0.00;;
26038;SDS011;13815;52.374;4.882;2023-10-31T08:24:48;0.00;;;0.00;;
26038;SDS011;13815;52.374;4.882;2023-10-31T08:27:14;0.00;;;0.00;;
26038;SDS011;13815;52.374;4.882;2023-10-31T08:29:39;0.00;;;0.00;;
26038;SDS011;13815;52.374;4.882;2023-10-31T08:32:05;0.00;;;0.00;;
26038;SDS011;13815;52.374;4.882;2023-10-31T08:34:31;0.00;;;0.00;;
26038;SDS011;13815;52.374;4.882;2023-10-31T08:36:56;0.00;;;0.00;;
26038;SDS011;13815;52.374;4.882;2023-10-31T08:39:23;0.00;;;0.00;;
26038;SDS011;13815;52.374;4.882;2023-10-31T08:41:49;0.00;;;0.00;;
26038;SDS011;13815;52.374;4.882;2023-10-31T08:44:16;0.00;;;0.00;;
26038;SDS011;13815;52.374;4.882;2023-10-31T08:46:42;0.00;;;0.00;;
26038;SDS011;13815;52.374;4.882;2023-10-31T08:49:10;0.00;;;0.00;;
26038;SDS011;13815;52.374;4.882;2023-10-31T08:51:35;0.00;;;0.00;;
26038;SDS011;13815;52.374;4.882;2023-10-31T08:54:01;0.00;;;0.00;;
26038;SDS011;13815;52.374;4.882;2023-10-31T08:56:26;0.00;;;0.00;;
26038;SDS011;13815;52.374;4.882;2023-10-31T08:58:52;0.00;;;0.00;;
26038;SDS011;13815;52.374;4.882;2023-10-31T09:01:18;0.00;;;0.00;;
26038;SDS011;13815;52.374;4.882;2023-10-31T09:03:43;0.00;;;0.00;;
26038;SDS011;13815;52.374;4.882;2023-10-31T09:06:09;0.00;;;0.00;;
26038;SDS011;13815;52.374;4.882;2023-10-31T09:08:34;0.00;;;0.00;;
26038;SDS011;13815;52.374;4.882;2023-10-31T09:11:01;0.00;;;0.00;;
26038;SDS011;13815;52.374;4.882;2023-10-31T09:13:28;0.00;;;0.00;;
26038;SDS011;13815;52.374;4.882;2023-10-31T09:15:53;0.00;;;0.00;;
26038;SDS011;13815;52.374;4.882;2023-10-31T09:18:19;0.00;;;0.00;;
26038;SDS011;13815;52.374;4.882;2023-10-31T09:20:44;0.00;;;0.00;;
26038;SDS011;13815;52.374;4.882;2023-10-31T09:23:10;0.00;;;0.00;;
26038;SDS011;13815;52.374;4.882;2023-10-31T09:25:35;0.00;;;0.00;;
26038;SDS011;13815;52.374;4.882;2023-10-31T09:28:00;0.00;;;0.00;;
26038;SDS011;13815;52.374;4.882;2023-10-31T09:30:26;0.00;;;0.00;;
26038;SDS011;13815;52.374;4.882;2023-10-31T09:32:51;0.00;;;0.00;;
26038;SDS011;13815;52.374;4.882;2023-10-31T09:35:17;0.00;;;0.00;;
26038;SDS011;13815;52.374;4.882;2023-10-31T09:37:42;0.00;;;0.00;;
26038;SDS011;13815;52.374;4.882;2023-10-31T09:40:09;0.00;;;0.00;;
26038;SDS011;13815;52.374;4.882;2023-10-31T09:42:35;0.00;;;0.00;;
26038;SDS011;13815;52.374;4.882;2023-10-31T09:45:01;0.00;;;0.00;;
26038;SDS011;13815;52.374;4.882;2023-10-31T09:47:26;0.00;;;0.00;;
26038;SDS011;13815;52.374;4.882;2023-10-31T09:49:52;0.00;;;0.00;;
26038;SDS011;13815;52.374;4.882;2023-10-31T09:52:17;0.00;;;0.00;;
26038;SDS011;13815;52.374;4.882;2023-10-31T09:54:45;0.00;;;0.00;;
26038;SDS011;13815;52.374;4.882;2023-10-31T09:57:12;0.00;;;0.00;;
26038;SDS011;13815;52.374;4.882;2023-10-31T09:59:39;0.00;;;0.00;;
26038;SDS011;13815;52.374;4.882;2023-10-31T10:02:04;0.00;;;0.00;;
26038;SDS011;13815;52.374;4.882;2023-10-31T10:04:29;0.00;;;0.00;;
26038;SDS011;13815;52.374;4.882;2023-10-31T10:06:59;0.00;;;0.00;;
26038;SDS011;13815;52.374;4.882;2023-10-31T10:09:26;0.00;;;0.00;;
26038;SDS011;13815;52.374;4.882;2023-10-31T10:11:52;0.00;;;0.00;;
26038;SDS011;13815;52.374;4.882;2023-10-31T10:14:18;0.00;;;0.00;;
26038;SDS011;13815;52.374;4.882;2023-10-31T10:16:43;0.00;;;0.00;;
26038;SDS011;13815;52.374;4.882;2023-10-31T10:21:54;0.00;;;0.00;;
26038;SDS011;13815;52.374;4.882;2023-10-31T10:24:21;0.00;;;0.00;;
26038;SDS011;13815;52.374;4.882;2023-10-31T10:26:48;0.00;;;0.00;;
26038;SDS011;13815;52.374;4.882;2023-10-31T10:29:14;0.00;;;0.00;;
26038;SDS011;13815;52.374;4.882;2023-10-31T10:31:39;0.00;;;0.00;;
26038;SDS011;13815;52.374;4.882;2023-10-31T10:34:06;0.00;;;0.00;;
26038;SDS011;13815;52.374;4.882;2023-10-31T10:36:32;0.00;;;0.00;;
26038;SDS011;13815;52.374;4.882;2023-10-31T10:38:58;0.00;;;0.00;;
26038;SDS011;13815;52.374;4.882;2023-10-31T10:41:27;0.00;;;0.00;;
26038;SDS011;13815;52.374;4.882;2023-10-31T10:43:56;0.00;;;0.00;;
26038;SDS011;13815;52.374;4.882;2023-10-31T10:46:24;0.00;;;0.00;;
26038;SDS011;13815;52.374;4.882;2023-10-31T10:48:52;0.00;;;0.00;;
26038;SDS011;13815;52.374;4.882;2023-10-31T10:51:24;0.00;;;0.00;;
26038;SDS011;13815;52.374;4.882;2023-10-31T10:54:10;0.00;;;0.00;;
26038;SDS011;13815;52.374;4.882;2023-10-31T10:56:41;0.00;;;0.00;;
26038;SDS011;13815;52.374;4.882;2023-10-31T10:59:20;0.00;;;0.00;;
26038;SDS011;13815;52.374;4.882;2023-10-31T11:01:46;0.00;;;0.00;;
26038;SDS011;13815;52.374;4.882;2023-10-31T11:07:07;0.00;;;0.00;;
26038;SDS011;13815;52.374;4.882;2023-10-31T11:47:56;0.60;;;0.60;;
26038;SDS011;13815;52.374;4.882;2023-10-31T11:50:22;1.10;;;1.10;;
26038;SDS011;13815;52.374;4.882;2023-10-31T11:53:04;1.60;;;1.60;;
26038;SDS011;13815;52.374;4.882;2023-10-31T11:55:58;2.60;;;2.60;;
26038;SDS011;13815;52.374;4.882;2023-10-31T11:58:24;2.60;;;2.60;;
26038;SDS011;13815;52.374;4.882;2023-10-31T12:01:01;2.75;;;2.75;;
26038;SDS011;13815;52.374;4.882;2023-10-31T12:45:20;1.90;;;1.90;;
26038;SDS011;13815;52.374;4.882;2023-10-31T12:48:01;1.42;;;1.42;;
26038;SDS011;13815;52.374;4.882;2023-10-31T12:50:31;1.30;;;1.30;;
26038;SDS011;13815;52.374;4.882;2023-10-31T12:53:01;0.90;;;0.90;;
26038;SDS011;13815;52.374;4.882;2023-10-31T12:55:28;0.80;;;0.80;;
26038;SDS011;13815;52.374;4.882;2023-10-31T12:57:54;0.80;;;0.80;;
26038;SDS011;13815;52.374;4.882;2023-10-31T13:00:29;0.70;;;0.70;;
26038;SDS011;13815;52.374;4.882;2023-10-31T13:03:03;0.40;;;0.40;;
26038;SDS011;13815;52.374;4.882;2023-10-31T13:05:30;0.40;;;0.40;;
26038;SDS011;13815;52.374;4.882;2023-10-31T13:07:56;0.30;;;0.30;;
26038;SDS011;13815;52.374;4.882;2023-10-31T13:10:24;0.30;;;0.30;;
26038;SDS011;13815;52.374;4.882;2023-10-31T13:12:50;0.25;;;0.25;;
26038;SDS011;13815;52.374;4.882;2023-10-31T13:15:16;0.20;;;0.20;;
26038;SDS011;13815;52.374;4.882;2023-10-31T13:17:43;0.20;;;0.20;;
26038;SDS011;13815;52.374;4.882;2023-10-31T13:20:10;0.20;;;0.20;;
26038;SDS011;13815;52.374;4.882;2023-10-31T13:22:36;0.20;;;0.20;;
26038;SDS011;13815;52.374;4.882;2023-10-31T13:25:05;0.15;;;0.15;;
26038;SDS011;13815;52.374;4.882;2023-10-31T13:27:36;0.10;;;0.10;;
26038;SDS011;13815;52.374;4.882;2023-10-31T13:30:05;0.10;;;0.10;;
26038;SDS011;13815;52.374;4.882;2023-10-31T13:32:30;0.10;;;0.10;;
26038;SDS011;13815;52.374;4.882;2023-10-31T13:34:58;0.10;;;0.10;;
26038;SDS011;13815;52.374;4.882;2023-10-31T13:37:24;0.00;;;0.00;;
26038;SDS011;13815;52.374;4.882;2023-10-31T13:39:50;0.00;;;0.00;;
26038;SDS011;13815;52.374;4.882;2023-10-31T13:58:33;0.00;;;0.00;;
26038;SDS011;13815;52.374;4.882;2023-10-31T14:16:53;0.00;;;0.00;;
26038;SDS011;13815;52.374;4.882;2023-10-31T14:19:22;0.00;;;0.00;;
26038;SDS011;13815;52.374;4.882;2023-10-31T14:21:47;0.00;;;0.00;;
26038;SDS011;13815;52.374;4.882;2023-10-31T14:38:06;0.00;;;0.00;;
26038;SDS011;13815;52.374;4.882;2023-10-31T14:57:24;0.00;;;0.00;;
26038;SDS011;13815;52.374;4.882;2023-10-31T15:00:07;0.00;;;0.00;;
26038;SDS011;13815;52.374;4.882;2023-10-31T15:02:51;0.00;;;0.00;;
26038;SDS011;13815;52.374;4.882;2023-10-31T15:05:24;0.00;;;0.00;;
26038;SDS011;13815;52.374;4.882;2023-10-31T15:07:50;0.00;;;0.00;;
26038;SDS011;13815;52.374;4.882;2023-10-31T15:10:18;0.00;;;0.00;;
26038;SDS011;13815;52.374;4.882;2023-10-31T15:12:47;0.00;;;0.00;;
26038;SDS011;13815;52.374;4.882;2023-10-31T15:15:14;0.00;;;0.00;;
26038;SDS011;13815;52.374;4.882;2023-10-31T15:17:42;0.00;;;0.00;;
26038;SDS011;13815;52.374;4.882;2023-10-31T15:20:08;0.00;;;0.00;;
26038;SDS011;13815;52.374;4.882;2023-10-31T15:22:40;0.00;;;0.00;;
26038;SDS011;13815;52.374;4.882;2023-10-31T15:25:06;0.00;;;0.00;;
26038;SDS011;13815;52.374;4.882;2023-10-31T15:27:33;0.00;;;0.00;;
26038;SDS011;13815;52.374;4.882;2023-10-31T15:29:58;0.00;;;0.00;;
26038;SDS011;13815;52.374;4.882;2023-10-31T15:32:24;0.00;;;0.00;;
26038;SDS011;13815;52.374;4.882;2023-10-31T15:34:49;0.00;;;0.00;;
26038;SDS011;13815;52.374;4.882;2023-10-31T15:37:14;0.00;;;0.00;;
26038;SDS011;13815;52.374;4.882;2023-10-31T15:39:41;0.00;;;0.00;;
26038;SDS011;13815;52.374;4.882;2023-10-31T15:42:07;0.00;;;0.00;;
26038;SDS011;13815;52.374;4.882;2023-10-31T15:44:33;0.00;;;0.00;;
26038;SDS011;13815;52.374;4.882;2023-10-31T15:47:00;0.00;;;0.00;;
26038;SDS011;13815;52.374;4.882;2023-10-31T15:49:26;0.00;;;0.00;;
26038;SDS011;13815;52.374;4.882;2023-10-31T15:51:51;0.00;;;0.00;;
26038;SDS011;13815;52.374;4.882;2023-10-31T15:54:16;0.00;;;0.00;;
26038;SDS011;13815;52.374;4.882;2023-10-31T15:56:42;0.00;;;0.00;;
26038;SDS011;13815;52.374;4.882;2023-10-31T15:59:07;0.00;;;0.00;;
26038;SDS011;13815;52.374;4.882;2023-10-31T16:01:32;0.00;;;0.00;;
26038;SDS011;13815;52.374;4.882;2023-10-31T16:03:58;0.00;;;0.00;;
26038;SDS011;13815;52.374;4.882;2023-10-31T16:06:23;0.00;;;0.00;;
26038;SDS011;13815;52.374;4.882;2023-10-31T16:08:48;0.00;;;0.00;;
26038;SDS011;13815;52.374;4.882;2023-10-31T16:11:14;0.00;;;0.00;;
26038;SDS011;13815;52.374;4.882;2023-10-31T16:13:39;0.00;;;0.00;;
26038;SDS011;13815;52.374;4.882;2023-10-31T16:16:09;0.00;;;0.00;;
26038;SDS011;13815;52.374;4.882;2023-10-31T16:18:35;0.00;;;0.00;;
26038;SDS011;13815;52.374;4.882;2023-10-31T16:21:02;0.00;;;0.00;;
26038;SDS011;13815;52.374;4.882;2023-10-31T16:23:30;0.00;;;0.00;;
26038;SDS011;13815;52.374;4.882;2023-10-31T16:25:55;0.00;;;0.00;;
26038;SDS011;13815;52.374;4.882;2023-10-31T16:28:21;0.00;;;0.00;;
26038;SDS011;13815;52.374;4.882;2023-10-31T16:30:46;0.00;;;0.00;;
26038;SDS011;13815;52.374;4.882;2023-10-31T16:33:19;0.00;;;0.00;;
26038;SDS011;13815;52.374;4.882;2023-10-31T16:38:10;0.00;;;0.00;;
26038;SDS011;13815;52.374;4.882;2023-10-31T16:40:35;0.00;;;0.00;;
26038;SDS011;13815;52.374;4.882;2023-10-31T16:43:01;0.00;;;0.00;;
26038;SDS011;13815;52.374;4.882;2023-10-31T16:45:26;0.00;;;0.00;;
26038;SDS011;13815;52.374;4.882;2023-10-31T16:47:52;0.00;;;0.00;;
26038;SDS011;13815;52.374;4.882;2023-10-31T16:50:17;0.00;;;0.00;;
26038;SDS011;13815;52.374;4.882;2023-10-31T16:52:43;0.00;;;0.00;;
26038;SDS011;13815;52.374;4.882;2023-10-31T16:55:08;0.00;;;0.00;;
26038;SDS011;13815;52.374;4.882;2023-10-31T16:57:34;0.00;;;0.00;;
26038;SDS011;13815;52.374;4.882;2023-10-31T16:59:59;0.00;;;0.00;;
26038;SDS011;13815;52.374;4.882;2023-10-31T17:02:25;0.00;;;0.00;;
26038;SDS011;13815;52.374;4.882;2023-10-31T17:04:50;0.00;;;0.00;;
26038;SDS011;13815;52.374;4.882;2023-10-31T17:07:18;0.00;;;0.00;;
26038;SDS011;13815;52.374;4.882;2023-10-31T17:09:46;0.00;;;0.00;;
26038;SDS011;13815;52.374;4.882;2023-10-31T17:12:11;0.00;;;0.00;;
26038;SDS011;13815;52.374;4.882;2023-10-31T17:14:36;0.00;;;0.00;;